LDSB/BWK METAR and TAF weather

Enter ICAO airport designator
Station Type Date Time Source
LDSB METAR 2019/10/15 14:00 UTC NOAA

LDSB 151400Z VRB05KT CAVOK 19/14 Q1018


Station Type Date Time Source
LDSB Decoded METAR 2019/10/15 14:00 UTC NOAA

Brac, Croatia (LDSB) 43-17-09N 016-40-47E
Oct 15, 2019 - 10:00 AM EDT / 2019.10.15 1400 UTC
Wind: Variable at 6 MPH (5 KT):0
Visibility: greater than 7 mile(s):0
Temperature: 66 F (19 C)
Dew Point: 57 F (14 C)
Relative Humidity: 72%
Pressure (altimeter): 30.06 in. Hg (1018 hPa)
ob: LDSB 151400Z VRB05KT CAVOK 19/14 Q1018
cycle: 14

Station Type Date Time Source
LDSB TAF 2019/10/15 15:06 UTC NOAA

TAF
AMD TAF
AMD LDSB 151503Z 1515/1612 CNL

Example: see airport list